createdAt,value
2022-08-28T00:01:02.096Z,21.05
2022-08-28T00:03:30.428Z,16.30
2022-08-28T00:05:58.567Z,15.48
2022-08-28T00:08:46.671Z,14.05
2022-08-28T00:11:14.573Z,15.45
2022-08-28T00:13:42.342Z,12.18
2022-08-28T00:16:10.197Z,12.85
2022-08-28T00:18:38.334Z,15.50
2022-08-28T00:21:06.619Z,12.02
2022-08-28T00:23:42.251Z,15.85
2022-08-28T00:26:32.317Z,16.23
2022-08-28T00:29:00.149Z,17.35
2022-08-28T00:31:28.061Z,17.02
2022-08-28T00:33:55.850Z,15.00
2022-08-28T00:36:23.966Z,16.67
2022-08-28T00:38:51.802Z,16.55
2022-08-28T00:41:25.032Z,17.33
2022-08-28T00:44:15.928Z,20.55
2022-08-28T00:46:44.804Z,13.75
2022-08-28T00:49:13.146Z,16.08
2022-08-28T00:51:59.504Z,19.67
2022-08-28T00:54:27.555Z,18.67
2022-08-28T00:56:56.373Z,18.80
2022-08-28T00:59:25.306Z,16.60
2022-08-28T01:01:56.131Z,15.73
2022-08-28T01:04:24.732Z,13.90
2022-08-28T01:06:53.922Z,14.95
2022-08-28T01:09:23.345Z,15.25
2022-08-28T01:11:52.164Z,17.10
2022-08-28T01:14:23.151Z,13.00
2022-08-28T01:16:57.548Z,14.48
2022-08-28T01:19:39.533Z,15.63
2022-08-28T01:22:18.669Z,12.95
2022-08-28T01:24:47.140Z,13.25
2022-08-28T01:27:14.920Z,12.65
2022-08-28T01:29:42.657Z,15.18
2022-08-28T01:32:27.015Z,22.75
2022-08-28T01:34:54.723Z,16.40
2022-08-28T01:37:22.580Z,17.25
2022-08-28T01:39:50.271Z,15.63
2022-08-28T01:42:17.944Z,11.40
2022-08-28T01:44:45.790Z,12.18
2022-08-28T01:47:13.378Z,12.07
2022-08-28T01:49:41.072Z,21.90
2022-08-28T01:52:09.473Z,13.55
2022-08-28T01:54:42.131Z,13.27
2022-08-28T01:57:10.225Z,13.90
2022-08-28T01:59:37.851Z,14.30
2022-08-28T02:02:05.694Z,13.43
2022-08-28T02:04:33.675Z,11.82
2022-08-28T02:07:01.424Z,16.20
2022-08-28T02:09:29.138Z,14.10
2022-08-28T02:11:57.734Z,13.50
2022-08-28T02:14:25.453Z,14.82
2022-08-28T02:16:53.887Z,16.50
2022-08-28T02:19:21.723Z,13.27
2022-08-28T02:21:49.874Z,13.23
2022-08-28T02:24:17.882Z,12.13
2022-08-28T02:26:45.716Z,14.13
2022-08-28T02:29:13.398Z,14.85
2022-08-28T02:31:41.002Z,17.65
2022-08-28T02:34:09.449Z,20.83
2022-08-28T02:36:40.093Z,16.23
2022-08-28T02:39:07.784Z,14.77
2022-08-28T02:41:35.663Z,14.10
2022-08-28T02:44:03.498Z,14.65
2022-08-28T02:46:31.441Z,17.25
2022-08-28T02:48:59.580Z,18.05
2022-08-28T02:51:27.367Z,14.35
2022-08-28T02:53:55.028Z,18.35
2022-08-28T02:56:22.986Z,14.55
2022-08-28T02:58:50.634Z,14.85
2022-08-28T03:01:18.245Z,18.17
2022-08-28T03:03:46.066Z,14.50
2022-08-28T03:06:14.065Z,15.93
2022-08-28T03:08:42.709Z,16.10
2022-08-28T03:11:10.803Z,16.00
2022-08-28T03:13:39.864Z,17.45
2022-08-28T03:16:07.663Z,15.23
2022-08-28T03:18:35.452Z,15.68
2022-08-28T03:21:03.234Z,20.25
2022-08-28T03:23:32.005Z,19.40
2022-08-28T03:26:02.364Z,15.63
2022-08-28T03:28:32.435Z,15.32
2022-08-28T03:31:01.723Z,20.42
2022-08-28T03:33:29.526Z,17.48
2022-08-28T03:35:57.452Z,15.48
2022-08-28T03:38:25.803Z,17.23
2022-08-28T03:40:54.383Z,18.02
2022-08-28T03:43:23.893Z,17.85
2022-08-28T03:45:53.133Z,19.05
2022-08-28T03:48:20.859Z,15.82
2022-08-28T03:50:48.548Z,16.13
2022-08-28T03:53:16.834Z,17.70
2022-08-28T03:55:44.627Z,16.55
2022-08-28T03:58:12.297Z,14.93
2022-08-28T04:00:47.305Z,15.80
2022-08-28T04:03:15.512Z,19.00
2022-08-28T04:05:44.232Z,19.52
2022-08-28T04:08:16.208Z,14.02
2022-08-28T04:10:44.771Z,14.95
2022-08-28T04:13:13.839Z,17.27
2022-08-28T04:15:42.037Z,18.60
2022-08-28T04:18:10.651Z,14.75
2022-08-28T04:20:38.911Z,16.48
2022-08-28T04:23:09.877Z,13.05
2022-08-28T04:25:40.592Z,16.65
2022-08-28T04:28:08.578Z,15.15
2022-08-28T04:30:36.502Z,18.27
2022-08-28T04:33:06.128Z,15.82
2022-08-28T04:35:34.073Z,13.50
2022-08-28T04:38:04.267Z,13.82
2022-08-28T04:40:33.388Z,15.32
2022-08-28T04:43:01.196Z,11.20
2022-08-28T04:45:29.523Z,15.30
2022-08-28T04:47:58.109Z,23.35
2022-08-28T04:50:28.064Z,17.98
2022-08-28T04:52:55.702Z,20.75
2022-08-28T04:55:39.479Z,19.95
2022-08-28T04:58:11.817Z,11.05
2022-08-28T05:00:41.844Z,15.38
2022-08-28T05:03:11.338Z,13.38
2022-08-28T05:05:45.899Z,8.10
2022-08-28T05:08:14.342Z,13.25
2022-08-28T05:10:42.550Z,16.80
2022-08-28T05:13:11.311Z,13.73
2022-08-28T05:15:40.199Z,9.02
2022-08-28T05:18:08.037Z,9.52
2022-08-28T05:20:37.167Z,8.57
2022-08-28T05:23:05.947Z,9.55
2022-08-28T05:25:41.941Z,12.10
2022-08-28T05:28:11.988Z,7.78
2022-08-28T05:30:41.003Z,9.77
2022-08-28T05:33:09.200Z,11.60
2022-08-28T05:35:38.401Z,11.52
2022-08-28T05:38:06.849Z,9.55
2022-08-28T05:40:34.985Z,9.65
2022-08-28T05:43:02.837Z,10.35
2022-08-28T05:45:30.692Z,10.02
2022-08-28T05:47:58.484Z,7.57
2022-08-28T05:50:26.124Z,9.13
2022-08-28T05:52:53.911Z,11.15
2022-08-28T05:55:21.817Z,7.95
2022-08-28T05:57:49.478Z,11.05
2022-08-28T06:00:18.422Z,8.52
2022-08-28T06:02:46.043Z,9.48
2022-08-28T06:05:14.855Z,9.02
2022-08-28T06:07:43.143Z,11.13
2022-08-28T06:10:11.171Z,9.13
2022-08-28T06:12:38.803Z,8.90
2022-08-28T06:15:08.870Z,9.93
2022-08-28T06:17:37.940Z,7.53
2022-08-28T06:20:06.018Z,8.13
2022-08-28T06:22:33.893Z,7.63
2022-08-28T06:25:03.125Z,9.45
2022-08-28T06:27:34.200Z,8.02
2022-08-28T06:30:03.976Z,6.13
2022-08-28T06:32:31.571Z,9.48
2022-08-28T06:34:59.297Z,12.65
2022-08-28T06:37:27.145Z,10.95
2022-08-28T06:39:54.815Z,12.55
2022-08-28T06:42:22.881Z,11.90
2022-08-28T06:44:50.742Z,9.85
2022-08-28T06:47:18.457Z,9.75
2022-08-28T06:49:46.136Z,8.70
2022-08-28T06:52:13.948Z,7.85
2022-08-28T06:54:41.717Z,11.55
2022-08-28T06:57:23.788Z,14.82
2022-08-28T06:59:52.061Z,9.77
2022-08-28T07:02:20.049Z,8.00
2022-08-28T07:04:54.456Z,9.35
2022-08-28T07:07:31.772Z,6.85
2022-08-28T07:10:00.659Z,8.93
2022-08-28T07:12:28.222Z,10.35
2022-08-28T07:14:56.191Z,9.88
2022-08-28T07:17:24.086Z,7.35
2022-08-28T07:19:51.805Z,9.05
2022-08-28T07:22:19.457Z,9.07
2022-08-28T07:24:47.547Z,12.43
2022-08-28T07:27:18.907Z,7.20
2022-08-28T07:29:46.907Z,9.90
2022-08-28T07:32:15.869Z,8.48
2022-08-28T07:39:18.300Z,9.90
2022-08-28T07:41:46.963Z,10.25
2022-08-28T07:44:34.822Z,14.65
2022-08-28T07:47:05.641Z,8.18
2022-08-28T07:49:34.395Z,11.05
2022-08-28T07:52:02.183Z,9.68
2022-08-28T07:54:30.174Z,10.18
2022-08-28T07:56:57.825Z,7.95
2022-08-28T07:59:25.620Z,10.10
2022-08-28T08:01:54.440Z,10.63
2022-08-28T08:04:23.432Z,11.05
2022-08-28T08:06:57.209Z,13.93
2022-08-28T08:09:26.058Z,10.57
2022-08-28T08:11:55.120Z,8.25
2022-08-28T08:14:23.347Z,10.75
2022-08-28T08:16:52.501Z,8.23
2022-08-28T08:19:20.541Z,12.35
2022-08-28T08:21:55.063Z,10.18
2022-08-28T08:24:28.501Z,10.85
2022-08-28T08:26:59.945Z,9.57
2022-08-28T08:29:29.809Z,13.63
2022-08-28T08:31:58.895Z,9.10
2022-08-28T08:34:26.790Z,9.07
2022-08-28T08:36:54.651Z,11.55
2022-08-28T08:39:22.270Z,14.23
2022-08-28T08:41:51.436Z,9.65
2022-08-28T08:44:33.699Z,12.85
2022-08-28T08:47:14.749Z,11.35
2022-08-28T08:52:13.845Z,15.27
2022-08-28T08:54:42.576Z,11.80
2022-08-28T08:57:11.965Z,10.75
2022-08-28T08:59:40.024Z,10.18
2022-08-28T09:02:07.751Z,15.82
2022-08-28T09:04:41.076Z,10.98
2022-08-28T09:07:17.345Z,8.90
2022-08-28T09:09:52.500Z,11.93
2022-08-28T09:12:27.963Z,11.73
2022-08-28T09:15:07.837Z,13.02
2022-08-28T09:17:44.814Z,13.98
2022-08-28T09:20:14.988Z,14.40
2022-08-28T09:22:47.497Z,12.05
2022-08-28T09:25:34.233Z,16.13
2022-08-28T09:28:09.596Z,12.57
2022-08-28T09:30:37.949Z,11.57
2022-08-28T09:33:05.581Z,11.35
2022-08-28T09:35:34.509Z,15.45
2022-08-28T09:38:22.581Z,19.63
2022-08-28T09:41:46.127Z,12.43
2022-08-28T09:44:16.914Z,16.05
2022-08-28T09:46:47.724Z,12.38
2022-08-28T09:49:15.936Z,12.73
2022-08-28T09:51:44.105Z,11.80
2022-08-28T09:54:22.238Z,13.23
2022-08-28T09:56:50.490Z,12.55
2022-08-28T09:59:19.873Z,16.13
2022-08-28T10:01:51.302Z,14.02
2022-08-28T10:04:34.205Z,12.07
2022-08-28T10:07:04.954Z,15.43
2022-08-28T10:09:46.957Z,15.93
2022-08-28T10:12:34.411Z,16.75
2022-08-28T10:15:08.702Z,13.70
2022-08-28T10:17:43.010Z,12.98
2022-08-28T10:20:11.861Z,13.20
2022-08-28T10:22:52.815Z,17.38
2022-08-28T10:25:20.790Z,14.20
2022-08-28T10:27:51.896Z,16.40
2022-08-28T10:33:08.062Z,16.30
2022-08-28T10:35:42.176Z,16.30
2022-08-28T10:38:12.938Z,19.20
2022-08-28T10:40:59.509Z,18.50
2022-08-28T10:43:39.482Z,18.85
2022-08-28T10:46:15.676Z,17.57
2022-08-28T10:49:09.666Z,19.30
2022-08-28T10:51:43.627Z,18.25
2022-08-28T10:54:22.649Z,18.05
2022-08-28T10:57:08.526Z,17.27
2022-08-28T10:59:42.365Z,17.25
2022-08-28T11:02:12.239Z,17.00
2022-08-28T11:04:40.529Z,15.60
2022-08-28T11:07:09.880Z,20.98
2022-08-28T11:09:39.229Z,30.85
2022-08-28T11:12:09.598Z,20.88
2022-08-28T11:14:47.483Z,21.00
2022-08-28T11:17:37.047Z,25.10
2022-08-28T11:20:08.061Z,21.05
2022-08-28T11:25:12.602Z,18.75
2022-08-28T11:27:40.535Z,18.05
2022-08-28T11:30:11.191Z,22.42
2022-08-28T11:32:55.685Z,16.70
2022-08-28T11:35:39.119Z,17.13
2022-08-28T11:38:06.784Z,16.92
2022-08-28T11:40:37.032Z,20.48
2022-08-28T11:43:17.080Z,16.50
2022-08-28T11:45:48.056Z,14.93
2022-08-28T11:48:36.160Z,15.15
2022-08-28T11:51:06.987Z,18.60
2022-08-28T11:53:37.333Z,14.65
2022-08-28T11:56:09.648Z,14.93
2022-08-28T11:58:43.455Z,12.52
2022-08-28T12:01:13.004Z,15.10
2022-08-28T12:03:45.038Z,15.52
2022-08-28T12:06:13.519Z,15.65
2022-08-28T12:08:59.511Z,15.15
2022-08-28T12:11:42.875Z,15.45
2022-08-28T12:14:30.066Z,14.70
2022-08-28T12:17:17.857Z,15.70
2022-08-28T12:19:55.484Z,14.63
2022-08-28T12:22:26.786Z,19.83
2022-08-28T12:24:58.181Z,12.83
2022-08-28T12:27:26.542Z,14.80
2022-08-28T12:29:55.857Z,14.85
2022-08-28T12:32:29.449Z,14.98
2022-08-28T12:35:00.729Z,14.77
2022-08-28T12:39:58.419Z,18.42
2022-08-28T12:42:31.441Z,18.20
2022-08-28T12:45:08.083Z,16.20
2022-08-28T12:47:37.739Z,17.45
2022-08-28T12:50:24.209Z,18.30
2022-08-28T12:52:53.371Z,13.88
2022-08-28T12:55:24.478Z,13.65
2022-08-28T12:57:53.096Z,11.55
2022-08-28T13:00:23.248Z,12.75
2022-08-28T13:02:53.230Z,11.77
2022-08-28T13:05:24.305Z,11.52
2022-08-28T13:07:54.164Z,14.85
2022-08-28T13:10:24.531Z,12.23
2022-08-28T13:13:12.448Z,15.05
2022-08-28T13:15:46.654Z,14.70
2022-08-28T13:18:43.556Z,13.38
2022-08-28T13:21:13.351Z,12.73
2022-08-28T13:23:41.501Z,12.40
2022-08-28T13:26:10.897Z,12.00
2022-08-28T13:28:39.609Z,11.65
2022-08-28T13:31:07.513Z,12.90
2022-08-28T13:33:35.134Z,9.35
2022-08-28T13:36:20.126Z,7.43
2022-08-28T13:38:47.712Z,7.93
2022-08-28T13:41:15.751Z,9.98
2022-08-28T13:43:44.869Z,6.95
2022-08-28T13:46:12.715Z,8.18
2022-08-28T13:48:40.665Z,6.25
2022-08-28T13:51:10.726Z,7.40
2022-08-28T13:53:40.408Z,7.28
2022-08-28T13:56:08.423Z,6.25
2022-08-28T13:58:36.037Z,9.52
2022-08-28T14:01:03.977Z,8.60
2022-08-28T14:03:38.784Z,10.90
2022-08-28T14:06:11.787Z,9.40
2022-08-28T14:08:40.336Z,11.05
2022-08-28T14:11:08.881Z,12.82
2022-08-28T14:13:47.349Z,12.40
2022-08-28T14:16:25.246Z,15.02
2022-08-28T14:18:53.580Z,13.98
2022-08-28T14:21:22.242Z,11.93
2022-08-28T14:23:50.166Z,11.18
2022-08-28T14:26:18.076Z,11.57
2022-08-28T14:28:45.712Z,9.30
2022-08-28T14:31:14.755Z,8.80
2022-08-28T14:33:45.243Z,6.78
2022-08-28T14:36:17.598Z,7.00
2022-08-28T14:38:45.419Z,6.75
2022-08-28T14:41:14.779Z,5.38
2022-08-28T14:43:42.730Z,5.40
2022-08-28T14:46:15.419Z,7.63
2022-08-28T14:48:43.402Z,7.13
2022-08-28T14:51:11.466Z,8.73
2022-08-28T14:53:39.291Z,9.75
2022-08-28T14:56:08.595Z,7.65
2022-08-28T14:58:36.660Z,6.10
2022-08-28T15:01:05.372Z,6.88
2022-08-28T15:03:33.415Z,7.57
2022-08-28T15:06:06.256Z,6.53
2022-08-28T15:08:34.236Z,12.05
2022-08-28T15:11:06.331Z,12.80
2022-08-28T15:13:34.087Z,9.30
2022-08-28T15:16:10.586Z,9.82
2022-08-28T15:18:45.698Z,14.25
2022-08-28T15:21:22.010Z,10.10
2022-08-28T15:23:50.576Z,10.73
2022-08-28T15:26:19.064Z,9.13
2022-08-28T15:28:47.234Z,8.85
2022-08-28T15:31:15.592Z,15.88
2022-08-28T15:33:45.466Z,12.88
2022-08-28T15:36:13.512Z,11.38
2022-08-28T15:39:00.155Z,12.63
2022-08-28T15:41:29.359Z,22.05
2022-08-28T15:44:01.933Z,14.43
2022-08-28T15:46:31.544Z,13.52
2022-08-28T15:48:59.482Z,17.50
2022-08-28T15:51:27.651Z,13.85
2022-08-28T15:53:56.181Z,12.15
2022-08-28T15:56:24.508Z,13.55
2022-08-28T15:58:52.148Z,14.32
2022-08-28T16:01:20.446Z,15.50
2022-08-28T16:03:48.103Z,13.07
2022-08-28T16:06:18.031Z,14.45
2022-08-28T16:08:47.070Z,14.43
2022-08-28T16:11:18.896Z,13.48
2022-08-28T16:13:47.173Z,13.15
2022-08-28T16:16:15.082Z,13.70
2022-08-28T16:18:42.970Z,13.57
2022-08-28T16:21:11.301Z,15.55
2022-08-28T16:23:39.490Z,15.55
2022-08-28T16:26:07.936Z,15.60
2022-08-28T16:28:36.108Z,15.32
2022-08-28T16:31:07.347Z,14.20
2022-08-28T16:33:35.624Z,14.00
2022-08-28T16:36:11.752Z,14.02
2022-08-28T16:38:39.919Z,11.65
2022-08-28T16:41:11.917Z,15.65
2022-08-28T16:43:39.602Z,12.35
2022-08-28T16:46:11.315Z,18.33
2022-08-28T16:48:39.322Z,13.98
2022-08-28T16:51:08.300Z,13.18
2022-08-28T16:53:35.967Z,17.23
2022-08-28T16:56:04.069Z,13.77
2022-08-28T16:58:32.076Z,13.48
2022-08-28T17:01:00.437Z,14.85
2022-08-28T17:03:28.800Z,14.98
2022-08-28T17:05:57.259Z,14.52
2022-08-28T17:08:24.835Z,17.52
2022-08-28T17:10:52.702Z,17.08
2022-08-28T17:13:20.448Z,15.73
2022-08-28T17:15:48.140Z,16.70
2022-08-28T17:18:15.948Z,26.50
2022-08-28T17:21:02.155Z,15.45
2022-08-28T17:23:30.117Z,17.75
2022-08-28T17:25:57.765Z,18.98
2022-08-28T17:28:25.436Z,18.05
2022-08-28T17:30:53.449Z,17.67
2022-08-28T17:33:22.212Z,22.08
2022-08-28T17:35:50.387Z,20.77
2022-08-28T17:38:20.075Z,23.58
2022-08-28T17:40:47.937Z,19.73
2022-08-28T17:43:15.547Z,20.20
2022-08-28T17:45:43.520Z,22.23
2022-08-28T17:48:11.399Z,23.83
2022-08-28T17:50:39.107Z,23.02
2022-08-28T17:53:06.937Z,25.90
2022-08-28T17:55:34.640Z,20.67
2022-08-28T17:58:02.666Z,23.05
2022-08-28T18:00:30.884Z,21.80
2022-08-28T18:02:58.597Z,19.70
2022-08-28T18:05:26.250Z,23.70
2022-08-28T18:07:54.465Z,23.73
2022-08-28T18:10:22.227Z,25.88
2022-08-28T18:12:50.251Z,22.27
2022-08-28T18:15:18.265Z,24.35
2022-08-28T18:17:50.310Z,26.20
2022-08-28T18:20:18.246Z,26.33
2022-08-28T18:22:46.451Z,26.27
2022-08-28T18:25:34.360Z,20.27
2022-08-28T18:28:03.015Z,21.65
2022-08-28T18:30:31.060Z,18.08
2022-08-28T18:33:06.478Z,18.45
2022-08-28T18:35:37.170Z,20.75
2022-08-28T18:38:10.010Z,25.27
2022-08-28T18:40:38.351Z,22.05
2022-08-28T18:43:06.315Z,28.95
2022-08-28T18:45:34.376Z,22.70
2022-08-28T18:48:02.930Z,23.67
2022-08-28T18:50:31.715Z,24.80
2022-08-28T18:53:00.450Z,27.65
2022-08-28T18:55:29.473Z,24.92
2022-08-28T19:00:27.715Z,22.17
2022-08-28T19:02:55.689Z,27.58
2022-08-28T19:05:24.016Z,24.83
2022-08-28T19:07:51.935Z,21.58
2022-08-28T19:10:32.777Z,24.45
2022-08-28T19:13:01.547Z,25.67
2022-08-28T19:15:30.157Z,26.25
2022-08-28T19:18:00.505Z,28.42
2022-08-28T19:20:29.084Z,31.30
2022-08-28T19:22:57.509Z,22.90
2022-08-28T19:25:28.819Z,24.90
2022-08-28T19:27:59.068Z,24.95
2022-08-28T19:30:28.301Z,24.10
2022-08-28T19:32:56.369Z,22.35
2022-08-28T19:35:24.889Z,24.10
2022-08-28T19:37:53.382Z,25.27
2022-08-28T19:40:22.202Z,27.48
2022-08-28T19:42:50.206Z,24.13
2022-08-28T19:45:18.823Z,25.98
2022-08-28T19:47:47.175Z,24.15
2022-08-28T19:50:15.215Z,29.55
2022-08-28T19:52:44.147Z,25.33
2022-08-28T19:55:18.337Z,24.38
2022-08-28T19:57:48.214Z,21.67
2022-08-28T20:00:20.432Z,20.35
2022-08-28T20:02:49.253Z,20.42
2022-08-28T20:05:17.460Z,20.05
2022-08-28T20:07:45.123Z,19.00
2022-08-28T20:10:13.405Z,13.00
2022-08-28T20:12:45.033Z,14.95
2022-08-28T20:15:16.825Z,12.43
2022-08-28T20:17:49.958Z,12.85
2022-08-28T20:20:20.354Z,11.60
2022-08-28T20:22:49.002Z,8.52
2022-08-28T20:25:22.450Z,8.00
2022-08-28T20:27:50.523Z,9.38
2022-08-28T20:30:18.386Z,8.05
2022-08-28T20:32:46.094Z,9.48
2022-08-28T20:35:15.382Z,8.07
2022-08-28T20:37:45.361Z,7.65
2022-08-28T20:40:17.050Z,7.97
2022-08-28T20:42:45.285Z,7.32
2022-08-28T20:45:14.105Z,8.55
2022-08-28T20:47:41.804Z,8.00
2022-08-28T20:50:10.296Z,8.68
2022-08-28T20:52:38.282Z,9.13
2022-08-28T20:55:07.713Z,11.07
2022-08-28T20:57:35.980Z,10.40
2022-08-28T21:00:06.130Z,8.90
2022-08-28T21:02:33.970Z,7.00
2022-08-28T21:05:02.217Z,7.38
2022-08-28T21:07:30.169Z,6.70
2022-08-28T21:10:05.869Z,7.97
2022-08-28T21:12:36.797Z,7.22
2022-08-28T21:15:05.349Z,6.35
2022-08-28T21:17:32.987Z,6.72
2022-08-28T21:20:06.494Z,8.13
2022-08-28T21:22:35.352Z,6.95
2022-08-28T21:25:05.222Z,6.60
2022-08-28T21:27:32.815Z,7.65
2022-08-28T21:30:01.280Z,5.70
2022-08-28T21:32:30.227Z,6.15
2022-08-28T21:34:58.015Z,6.30
2022-08-28T21:37:25.625Z,6.70
2022-08-28T21:39:53.918Z,5.93
2022-08-28T21:42:25.088Z,6.18
2022-08-28T21:44:54.474Z,7.97
2022-08-28T21:47:23.286Z,8.40
2022-08-28T21:49:51.659Z,8.20
2022-08-28T21:52:19.865Z,7.50
2022-08-28T21:54:48.160Z,11.88
2022-08-28T21:57:16.599Z,13.82
2022-08-28T21:59:44.301Z,11.15
2022-08-28T22:02:12.218Z,13.32
2022-08-28T22:04:41.222Z,15.80
2022-08-28T22:07:12.008Z,14.57
2022-08-28T22:09:40.323Z,15.45
2022-08-28T22:12:09.246Z,13.75
2022-08-28T22:14:37.540Z,16.98
2022-08-28T22:17:11.514Z,18.00
2022-08-28T22:19:41.297Z,13.93
2022-08-28T22:22:28.719Z,16.42
2022-08-28T22:24:56.389Z,19.30
2022-08-28T22:27:24.252Z,28.70
2022-08-28T22:29:51.921Z,26.80
2022-08-28T22:32:25.364Z,27.85
2022-08-28T22:34:54.185Z,27.90
2022-08-28T22:37:23.168Z,22.15
2022-08-28T22:39:50.804Z,28.95
2022-08-28T22:42:18.880Z,25.20
2022-08-28T22:44:47.491Z,27.08
2022-08-28T22:47:15.242Z,33.55
2022-08-28T22:49:47.181Z,32.30
2022-08-28T22:52:15.486Z,26.95
2022-08-28T22:54:47.169Z,33.42
2022-08-28T22:57:21.059Z,31.73
2022-08-28T22:59:48.867Z,31.60
2022-08-28T23:02:18.387Z,32.83
2022-08-28T23:04:52.347Z,25.75
2022-08-28T23:07:20.153Z,26.75
2022-08-28T23:09:48.010Z,27.70
2022-08-28T23:12:15.633Z,29.95
2022-08-28T23:14:47.850Z,25.08
2022-08-28T23:17:17.406Z,26.23
2022-08-28T23:19:48.142Z,25.05
2022-08-28T23:22:16.472Z,23.95
2022-08-28T23:24:48.821Z,23.48
2022-08-28T23:27:35.324Z,21.30
2022-08-28T23:30:04.967Z,27.73
2022-08-28T23:32:33.723Z,18.80
2022-08-28T23:35:01.799Z,19.77
2022-08-28T23:37:30.413Z,21.00
2022-08-28T23:39:59.039Z,19.73
2022-08-28T23:42:28.389Z,21.63
2022-08-28T23:44:56.978Z,17.02
2022-08-28T23:47:24.834Z,25.13
2022-08-28T23:49:53.505Z,25.83
2022-08-28T23:52:21.370Z,26.33
2022-08-28T23:55:08.976Z,27.88
2022-08-28T23:57:38.078Z,26.45
